createdAt,value
2023-06-15T00:01:06.623Z,17.75
2023-06-15T00:03:33.935Z,11.50
2023-06-15T00:06:01.081Z,14.20
2023-06-15T00:08:28.091Z,10.65
2023-06-15T00:10:55.356Z,12.18
2023-06-15T00:13:22.380Z,13.25
2023-06-15T00:15:49.590Z,17.20
2023-06-15T00:18:16.692Z,12.48
2023-06-15T00:20:43.826Z,11.50
2023-06-15T00:23:11.739Z,15.93
2023-06-15T00:25:38.932Z,12.43
2023-06-15T00:28:06.084Z,15.40
2023-06-15T00:30:33.306Z,14.93
2023-06-15T00:33:00.682Z,10.70
2023-06-15T00:35:28.062Z,19.58
2023-06-15T00:37:56.046Z,15.73
2023-06-15T00:40:23.454Z,15.35
2023-06-15T00:42:50.607Z,21.38
2023-06-15T00:45:18.191Z,14.40
2023-06-15T00:47:47.489Z,20.60
2023-06-15T00:50:19.690Z,16.48
2023-06-15T00:52:50.521Z,19.55
2023-06-15T00:55:18.746Z,19.02
2023-06-15T00:57:50.820Z,19.75
2023-06-15T01:00:19.581Z,18.48
2023-06-15T01:02:50.834Z,15.50
2023-06-15T01:05:19.301Z,15.02
2023-06-15T01:07:49.866Z,17.40
2023-06-15T01:10:19.987Z,16.75
2023-06-15T01:12:52.193Z,17.98
2023-06-15T01:15:20.533Z,12.30
2023-06-15T01:17:55.533Z,11.98
2023-06-15T01:20:30.385Z,17.92
2023-06-15T01:23:31.535Z,12.05
2023-06-15T01:26:04.534Z,14.48
2023-06-15T01:28:32.251Z,15.05
2023-06-15T01:31:02.011Z,12.68
2023-06-15T01:33:32.300Z,7.60
2023-06-15T01:36:02.682Z,13.18
2023-06-15T01:41:01.288Z,13.77
2023-06-15T01:43:32.526Z,9.00
2023-06-15T01:46:01.141Z,11.20
2023-06-15T01:48:28.516Z,9.43
2023-06-15T01:50:56.738Z,15.45
2023-06-15T01:53:24.817Z,41.95
2023-06-15T01:55:52.809Z,13.95
2023-06-15T01:58:19.869Z,12.68
2023-06-15T02:00:47.871Z,15.80
2023-06-15T02:03:15.319Z,13.77
2023-06-15T02:05:42.760Z,9.90
2023-06-15T02:08:11.979Z,16.40
2023-06-15T02:10:39.905Z,12.13
2023-06-15T02:13:12.105Z,21.27
2023-06-15T02:15:40.805Z,17.73
2023-06-15T02:18:18.345Z,11.13
2023-06-15T02:20:46.545Z,12.52
2023-06-15T02:23:14.376Z,14.25
2023-06-15T02:25:41.610Z,11.98
2023-06-15T02:28:08.971Z,16.75
2023-06-15T02:30:39.586Z,12.75
2023-06-15T02:33:09.466Z,11.60
2023-06-15T02:35:37.379Z,10.55
2023-06-15T02:38:04.577Z,11.32
2023-06-15T02:40:32.353Z,11.52
2023-06-15T02:43:00.987Z,8.20
2023-06-15T02:45:28.362Z,13.35
2023-06-15T02:47:56.699Z,10.57
2023-06-15T02:50:24.731Z,15.85
2023-06-15T02:53:02.449Z,9.88
2023-06-15T02:55:29.670Z,11.23
2023-06-15T02:57:57.117Z,9.70
2023-06-15T03:00:43.379Z,9.95
2023-06-15T03:03:23.818Z,10.65
2023-06-15T03:05:53.059Z,8.93
2023-06-15T03:08:21.386Z,11.43
2023-06-15T03:10:55.960Z,12.35
2023-06-15T03:13:23.033Z,11.60
2023-06-15T03:15:52.225Z,12.15
2023-06-15T03:18:19.624Z,14.43
2023-06-15T03:20:53.923Z,12.90
2023-06-15T03:23:21.657Z,12.02
2023-06-15T03:25:50.959Z,15.52
2023-06-15T03:28:19.893Z,15.13
2023-06-15T03:30:53.831Z,13.48
2023-06-15T03:33:24.626Z,12.55
2023-06-15T03:35:54.360Z,15.13
2023-06-15T03:38:21.995Z,21.38
2023-06-15T03:40:51.085Z,20.73
2023-06-15T03:43:18.389Z,15.65
2023-06-15T03:45:47.332Z,22.77
2023-06-15T03:48:14.669Z,15.50
2023-06-15T03:50:41.948Z,14.95
2023-06-15T03:53:10.909Z,19.75
2023-06-15T03:55:39.603Z,21.00
2023-06-15T03:58:07.020Z,20.00
2023-06-15T04:00:34.330Z,16.02
2023-06-15T04:03:01.566Z,14.52
2023-06-15T04:05:28.824Z,17.83
2023-06-15T04:07:56.085Z,16.90
2023-06-15T04:10:24.745Z,14.88
2023-06-15T04:12:52.267Z,15.02
2023-06-15T04:15:19.823Z,15.35
2023-06-15T04:17:50.028Z,11.60
2023-06-15T04:20:19.368Z,14.32
2023-06-15T04:22:48.854Z,17.88
2023-06-15T04:25:17.426Z,19.38
2023-06-15T04:27:48.295Z,17.70
2023-06-15T04:30:19.231Z,25.70
2023-06-15T04:32:47.601Z,20.92
2023-06-15T04:35:19.084Z,13.82
2023-06-15T04:37:46.865Z,23.80
2023-06-15T04:40:14.040Z,16.35
2023-06-15T04:42:42.027Z,18.00
2023-06-15T04:45:11.235Z,15.20
2023-06-15T04:47:38.686Z,12.88
2023-06-15T04:50:07.490Z,15.38
2023-06-15T04:52:35.660Z,33.78
2023-06-15T04:55:03.085Z,15.63
2023-06-15T04:57:31.261Z,19.40
2023-06-15T04:59:58.540Z,24.25
2023-06-15T05:02:25.888Z,17.55
2023-06-15T05:04:53.540Z,15.93
2023-06-15T05:07:20.837Z,12.85
2023-06-15T05:09:50.568Z,10.15
2023-06-15T05:12:24.806Z,14.15
2023-06-15T05:14:52.077Z,18.25
2023-06-15T05:17:20.820Z,22.30
2023-06-15T05:22:16.762Z,12.02
2023-06-15T05:24:44.209Z,10.48
2023-06-15T05:27:11.433Z,8.35
2023-06-15T05:29:42.366Z,13.10
2023-06-15T05:32:11.294Z,11.90
2023-06-15T05:34:39.167Z,7.55
2023-06-15T05:37:06.712Z,11.32
2023-06-15T05:39:37.422Z,8.38
2023-06-15T05:42:04.850Z,7.90
2023-06-15T05:44:33.829Z,12.20
2023-06-15T05:47:02.021Z,6.85
2023-06-15T05:49:29.266Z,8.38
2023-06-15T05:51:56.926Z,8.90
2023-06-15T05:54:26.891Z,7.32
2023-06-15T05:56:55.882Z,6.63
2023-06-15T05:59:32.591Z,7.75
2023-06-15T06:02:01.441Z,4.50
2023-06-15T06:04:29.127Z,8.63
2023-06-15T06:06:56.345Z,4.38
2023-06-15T06:09:23.968Z,8.45
2023-06-15T06:11:51.947Z,6.65
2023-06-15T06:14:19.654Z,6.07
2023-06-15T06:16:46.885Z,6.13
2023-06-15T06:19:14.131Z,4.85
2023-06-15T06:21:42.032Z,5.07
2023-06-15T06:24:09.626Z,7.50
2023-06-15T06:26:38.216Z,4.28
2023-06-15T06:29:05.453Z,10.48
2023-06-15T06:31:32.664Z,4.55
2023-06-15T06:33:59.884Z,3.30
2023-06-15T06:36:27.956Z,8.90
2023-06-15T06:39:02.684Z,5.78
2023-06-15T06:41:30.661Z,6.13
2023-06-15T06:43:57.973Z,6.00
2023-06-15T06:46:25.285Z,8.80
2023-06-15T06:48:53.083Z,5.43
2023-06-15T06:51:20.283Z,7.10
2023-06-15T06:53:48.266Z,4.22
2023-06-15T06:56:15.789Z,4.90
2023-06-15T06:58:42.930Z,8.52
2023-06-15T07:01:10.168Z,7.78
2023-06-15T07:03:39.621Z,7.75
2023-06-15T07:06:06.951Z,5.28
2023-06-15T07:08:35.437Z,4.40
2023-06-15T07:11:03.406Z,5.38
2023-06-15T07:13:30.790Z,4.47
2023-06-15T07:15:59.372Z,6.28
2023-06-15T07:18:27.592Z,5.05
2023-06-15T07:20:55.240Z,4.35
2023-06-15T07:23:23.777Z,5.85
2023-06-15T07:25:55.485Z,6.60
2023-06-15T07:28:23.598Z,5.30
2023-06-15T07:30:50.988Z,6.78
2023-06-15T07:33:19.161Z,6.78
2023-06-15T07:35:46.800Z,7.30
2023-06-15T07:38:16.033Z,4.38
2023-06-15T07:40:43.733Z,5.18
2023-06-15T07:43:11.715Z,4.47
2023-06-15T07:45:39.272Z,6.30
2023-06-15T07:48:06.787Z,5.97
2023-06-15T07:50:34.123Z,7.78
2023-06-15T07:53:01.705Z,4.60
2023-06-15T07:55:28.965Z,5.13
2023-06-15T07:57:56.302Z,4.78
2023-06-15T08:00:24.084Z,7.05
2023-06-15T08:03:00.347Z,5.45
2023-06-15T08:05:27.738Z,6.57
2023-06-15T08:07:55.064Z,10.27
2023-06-15T08:10:22.934Z,4.55
2023-06-15T08:12:49.987Z,4.60
2023-06-15T08:15:17.686Z,6.25
2023-06-15T08:17:44.909Z,4.50
2023-06-15T08:20:12.672Z,5.85
2023-06-15T08:22:39.787Z,10.77
2023-06-15T08:25:07.493Z,7.78
2023-06-15T08:27:34.594Z,4.50
2023-06-15T08:30:01.677Z,4.57
2023-06-15T08:32:33.217Z,5.65
2023-06-15T08:35:00.570Z,6.22
2023-06-15T08:37:28.113Z,5.47
2023-06-15T08:39:55.178Z,8.65
2023-06-15T08:42:25.265Z,4.97
2023-06-15T08:44:54.197Z,5.13
2023-06-15T08:47:22.831Z,4.80
2023-06-15T08:49:50.251Z,4.63
2023-06-15T08:52:18.614Z,7.38
2023-06-15T08:54:46.100Z,6.90
2023-06-15T08:57:13.200Z,7.90
2023-06-15T08:59:42.151Z,6.70
2023-06-15T09:02:14.727Z,10.48
2023-06-15T09:04:42.421Z,7.57
2023-06-15T09:07:11.038Z,8.35
2023-06-15T09:09:38.292Z,4.65
2023-06-15T09:12:07.506Z,5.05
2023-06-15T09:14:41.266Z,5.13
2023-06-15T09:17:15.631Z,4.38
2023-06-15T09:19:42.765Z,4.22
2023-06-15T09:22:10.045Z,4.40
2023-06-15T09:24:42.979Z,5.90
2023-06-15T09:27:16.989Z,5.95
2023-06-15T09:30:14.264Z,6.43
2023-06-15T09:32:41.638Z,5.20
2023-06-15T09:35:09.810Z,5.15
2023-06-15T09:37:38.455Z,4.13
2023-06-15T09:40:08.886Z,5.82
2023-06-15T09:42:36.789Z,4.55
2023-06-15T09:45:07.627Z,4.55
2023-06-15T09:47:34.827Z,5.05
2023-06-15T09:50:08.687Z,6.78
2023-06-15T09:52:43.312Z,5.85
2023-06-15T09:55:11.737Z,6.53
2023-06-15T09:57:41.653Z,6.22
2023-06-15T10:00:10.890Z,7.53
2023-06-15T10:02:42.351Z,5.78
2023-06-15T10:05:15.410Z,9.33
2023-06-15T10:07:51.195Z,6.50
2023-06-15T10:10:22.110Z,4.05
2023-06-15T10:12:56.389Z,5.88
2023-06-15T10:15:25.981Z,7.13
2023-06-15T10:17:55.075Z,6.35
2023-06-15T10:20:25.360Z,5.90
2023-06-15T10:23:06.093Z,11.35
2023-06-15T10:25:33.890Z,6.32
2023-06-15T10:28:03.985Z,4.38
2023-06-15T10:30:49.807Z,4.95
2023-06-15T10:33:42.959Z,5.72
2023-06-15T10:36:19.418Z,7.32
2023-06-15T10:38:53.876Z,4.93
2023-06-15T10:41:21.372Z,6.40
2023-06-15T10:44:00.164Z,6.43
2023-06-15T10:46:31.739Z,5.75
2023-06-15T10:49:10.417Z,9.40
2023-06-15T10:51:43.107Z,4.88
2023-06-15T10:54:28.746Z,14.30
2023-06-15T10:56:57.240Z,5.50
2023-06-15T10:59:47.453Z,8.50
2023-06-15T11:02:43.636Z,5.88
2023-06-15T11:05:12.017Z,4.25
2023-06-15T11:07:47.510Z,5.07
2023-06-15T11:10:34.384Z,7.72
2023-06-15T11:13:07.128Z,5.70
2023-06-15T11:15:38.468Z,7.03
2023-06-15T11:18:13.943Z,4.47
2023-06-15T11:20:43.525Z,9.05
2023-06-15T11:23:17.597Z,4.72
2023-06-15T11:25:53.125Z,6.20
2023-06-15T11:28:36.860Z,5.47
2023-06-15T11:31:24.122Z,8.70
2023-06-15T11:33:51.330Z,6.10
2023-06-15T11:36:19.528Z,7.45
2023-06-15T11:38:46.698Z,7.40
2023-06-15T11:41:14.020Z,6.13
2023-06-15T11:43:43.257Z,7.50
2023-06-15T11:46:12.992Z,9.20
2023-06-15T11:48:47.207Z,5.28
2023-06-15T11:51:16.364Z,5.03
2023-06-15T11:53:44.677Z,6.82
2023-06-15T11:56:16.615Z,6.83
2023-06-15T11:58:45.828Z,7.22
2023-06-15T12:01:13.701Z,8.15
2023-06-15T12:06:22.427Z,8.50
2023-06-15T12:09:09.299Z,7.40
2023-06-15T12:11:55.617Z,14.45
2023-06-15T12:14:26.322Z,8.90
2023-06-15T12:16:54.810Z,6.28
2023-06-15T12:19:22.378Z,6.97
2023-06-15T12:21:49.766Z,8.50
2023-06-15T12:24:18.732Z,7.50
2023-06-15T12:26:54.516Z,6.32
2023-06-15T12:29:23.219Z,7.72
2023-06-15T12:34:41.214Z,6.05
2023-06-15T12:37:11.720Z,5.57
2023-06-15T12:39:57.281Z,5.28
2023-06-15T12:45:09.821Z,4.47
2023-06-15T12:47:37.225Z,8.35
2023-06-15T12:50:04.634Z,6.60
2023-06-15T12:52:31.712Z,5.35
2023-06-15T12:55:00.217Z,6.95
2023-06-15T12:57:27.383Z,8.02
2023-06-15T13:00:12.829Z,5.82
2023-06-15T13:02:41.208Z,5.47
2023-06-15T13:05:10.324Z,6.10
2023-06-15T13:10:07.423Z,9.38
2023-06-15T13:12:36.843Z,6.20
2023-06-15T13:15:05.138Z,5.20
2023-06-15T13:17:51.768Z,5.72
2023-06-15T13:20:20.578Z,9.32
2023-06-15T13:22:50.283Z,5.72
2023-06-15T13:25:18.833Z,6.75
2023-06-15T13:27:46.104Z,4.35
2023-06-15T13:30:14.740Z,6.95
2023-06-15T13:32:44.397Z,15.25
2023-06-15T13:35:12.174Z,11.63
2023-06-15T13:37:40.082Z,6.97
2023-06-15T13:40:08.360Z,6.32
2023-06-15T13:42:37.519Z,8.37
2023-06-15T13:45:16.003Z,6.40
2023-06-15T13:47:44.144Z,10.57
2023-06-15T13:50:19.305Z,4.70
2023-06-15T13:52:48.094Z,7.10
2023-06-15T13:57:47.066Z,6.18
2023-06-15T14:00:15.468Z,8.70
2023-06-15T14:02:44.512Z,4.20
2023-06-15T14:05:14.040Z,10.13
2023-06-15T14:07:41.610Z,5.68
2023-06-15T14:10:09.231Z,8.52
2023-06-15T14:12:37.678Z,9.02
2023-06-15T14:15:08.002Z,5.10
2023-06-15T14:17:35.389Z,5.70
2023-06-15T14:20:02.840Z,5.88
2023-06-15T14:22:32.118Z,8.13
2023-06-15T14:24:59.841Z,7.03
2023-06-15T14:27:27.261Z,7.00
2023-06-15T14:30:04.132Z,4.93
2023-06-15T14:32:31.695Z,6.75
2023-06-15T14:34:59.515Z,6.82
2023-06-15T14:37:26.964Z,5.05
2023-06-15T14:39:54.085Z,8.13
2023-06-15T14:42:24.772Z,8.02
2023-06-15T14:44:52.392Z,8.55
2023-06-15T14:47:19.640Z,7.78
2023-06-15T14:49:47.013Z,8.60
2023-06-15T14:52:14.817Z,12.52
2023-06-15T14:54:42.910Z,7.18
2023-06-15T14:57:12.704Z,7.18
2023-06-15T14:59:59.732Z,5.20
2023-06-15T15:02:27.613Z,12.45
2023-06-15T15:04:54.933Z,9.02
2023-06-15T15:07:22.236Z,9.50
2023-06-15T15:09:49.399Z,6.25
2023-06-15T15:12:16.659Z,8.13
2023-06-15T15:14:43.647Z,8.88
2023-06-15T15:17:13.355Z,10.35
2023-06-15T15:19:41.411Z,13.82
2023-06-15T15:22:08.646Z,11.82
2023-06-15T15:24:35.805Z,9.43
2023-06-15T15:27:03.142Z,7.00
2023-06-15T15:29:30.337Z,9.02
2023-06-15T15:31:57.509Z,7.88
2023-06-15T15:34:24.769Z,10.05
2023-06-15T15:36:51.947Z,9.50
2023-06-15T15:39:19.014Z,11.55
2023-06-15T15:41:46.362Z,11.85
2023-06-15T15:44:13.593Z,14.35
2023-06-15T15:46:40.697Z,22.10
2023-06-15T15:51:59.012Z,11.43
2023-06-15T15:54:26.155Z,12.57
2023-06-15T15:56:53.246Z,11.95
2023-06-15T15:59:22.988Z,13.55
2023-06-15T16:04:17.431Z,11.60
2023-06-15T16:06:44.524Z,13.50
2023-06-15T16:09:11.625Z,10.10
2023-06-15T16:11:38.797Z,9.25
2023-06-15T16:14:12.499Z,18.40
2023-06-15T16:16:39.790Z,14.88
2023-06-15T16:19:10.385Z,7.97
2023-06-15T16:21:37.549Z,9.00
2023-06-15T16:24:05.128Z,6.53
2023-06-15T16:26:32.173Z,8.95
2023-06-15T16:28:59.322Z,12.05
2023-06-15T16:31:26.504Z,10.05
2023-06-15T16:33:53.592Z,12.57
2023-06-15T16:36:21.122Z,12.45
2023-06-15T16:39:06.702Z,12.07
2023-06-15T16:41:34.430Z,13.10
2023-06-15T16:44:02.716Z,12.18
2023-06-15T16:46:29.857Z,13.20
2023-06-15T16:48:57.065Z,13.40
2023-06-15T16:54:08.793Z,15.30
2023-06-15T16:56:36.256Z,16.17
2023-06-15T16:59:03.453Z,20.08
2023-06-15T17:01:30.575Z,13.68
2023-06-15T17:03:57.729Z,12.25
2023-06-15T17:06:24.784Z,15.32
2023-06-15T17:08:52.073Z,17.80
2023-06-15T17:11:27.021Z,17.80
2023-06-15T17:13:54.319Z,16.52
2023-06-15T17:16:21.545Z,17.35
2023-06-15T17:18:48.811Z,14.48
2023-06-15T17:21:37.028Z,13.40
2023-06-15T17:24:06.631Z,13.38
2023-06-15T17:26:34.355Z,13.00
2023-06-15T17:29:01.514Z,13.52
2023-06-15T17:31:29.186Z,15.30
2023-06-15T17:33:56.536Z,11.43
2023-06-15T17:36:23.757Z,12.27
2023-06-15T17:38:50.901Z,14.57
2023-06-15T17:41:18.021Z,14.13
2023-06-15T17:43:45.647Z,12.68
2023-06-15T17:46:15.054Z,31.63
2023-06-15T17:48:42.815Z,23.95
2023-06-15T17:51:28.634Z,35.15
2023-06-15T17:53:56.014Z,14.80
2023-06-15T17:56:23.217Z,21.00
2023-06-15T17:58:50.413Z,18.48
2023-06-15T18:01:36.130Z,23.55
2023-06-15T18:04:04.693Z,26.65
2023-06-15T18:06:31.968Z,31.65
2023-06-15T18:08:59.104Z,47.15
2023-06-15T18:14:11.097Z,47.28
2023-06-15T18:16:39.073Z,19.08
2023-06-15T18:21:51.432Z,25.08
2023-06-15T18:24:18.677Z,16.70
2023-06-15T18:26:47.169Z,21.13
2023-06-15T18:29:18.346Z,19.83
2023-06-15T18:31:45.558Z,17.88
2023-06-15T18:34:15.609Z,15.30
2023-06-15T18:39:11.877Z,14.98
2023-06-15T18:44:23.859Z,90.18
2023-06-15T18:49:35.909Z,33.67
2023-06-15T18:52:03.087Z,43.88
2023-06-15T18:54:30.450Z,45.42
2023-06-15T18:56:57.733Z,51.80
2023-06-15T18:59:25.169Z,28.20
2023-06-15T19:04:37.292Z,28.30
2023-06-15T19:07:04.810Z,26.58
2023-06-15T19:09:31.878Z,23.95
2023-06-15T19:11:59.674Z,23.10
2023-06-15T19:14:29.189Z,25.42
2023-06-15T19:16:56.323Z,31.65
2023-06-15T19:19:23.641Z,24.25
2023-06-15T19:21:52.448Z,35.15
2023-06-15T19:24:21.960Z,21.38
2023-06-15T19:26:49.309Z,25.05
2023-06-15T19:29:16.777Z,25.95
2023-06-15T19:31:44.107Z,28.20
2023-06-15T19:34:11.180Z,29.60
2023-06-15T19:36:38.388Z,23.23
2023-06-15T19:39:05.633Z,31.70
2023-06-15T19:44:18.057Z,26.13
2023-06-15T19:46:45.833Z,26.23
2023-06-15T19:49:13.104Z,22.15
2023-06-15T19:54:25.195Z,31.15
2023-06-15T19:56:52.381Z,27.83
2023-06-15T19:59:20.289Z,34.58
2023-06-15T20:01:53.929Z,29.15
2023-06-15T20:04:21.200Z,23.25
2023-06-15T20:09:33.106Z,22.00
2023-06-15T20:12:00.423Z,27.63
2023-06-15T20:14:27.636Z,137.65
2023-06-15T20:16:55.204Z,27.83
2023-06-15T20:22:08.710Z,26.40
2023-06-15T20:24:36.159Z,22.00
2023-06-15T20:27:03.751Z,22.55
2023-06-15T20:29:31.458Z,25.77
2023-06-15T20:31:58.436Z,36.13
2023-06-15T20:34:25.751Z,30.92
2023-06-15T20:36:53.237Z,29.83
2023-06-15T20:39:20.517Z,29.42
2023-06-15T20:41:47.607Z,23.75
2023-06-15T20:44:14.872Z,22.80
2023-06-15T20:49:26.689Z,15.32
2023-06-15T20:51:53.831Z,19.52
2023-06-15T20:54:21.522Z,22.63
2023-06-15T20:56:51.734Z,25.20
2023-06-15T20:59:18.964Z,24.05
2023-06-15T21:01:46.108Z,30.38
2023-06-15T21:04:17.582Z,22.95
2023-06-15T21:06:44.669Z,32.13
2023-06-15T21:09:11.916Z,33.25
2023-06-15T21:11:39.006Z,21.65
2023-06-15T21:14:06.158Z,21.70
2023-06-15T21:16:33.315Z,17.88
2023-06-15T21:19:00.461Z,19.00
2023-06-15T21:21:28.725Z,23.25
2023-06-15T21:23:55.837Z,24.23
2023-06-15T21:26:22.975Z,21.77
2023-06-15T21:28:50.091Z,26.33
2023-06-15T21:31:18.295Z,27.50
2023-06-15T21:33:47.053Z,26.02
2023-06-15T21:36:14.112Z,32.33
2023-06-15T21:38:41.394Z,37.55
2023-06-15T21:41:08.429Z,25.48
2023-06-15T21:43:39.294Z,39.63
2023-06-15T21:46:08.042Z,35.97
2023-06-15T21:48:35.457Z,45.03
2023-06-15T21:51:03.367Z,33.15
2023-06-15T21:53:30.578Z,25.42
2023-06-15T21:55:57.626Z,33.13
2023-06-15T21:58:24.769Z,24.35
2023-06-15T22:00:51.908Z,27.38
2023-06-15T22:03:19.176Z,26.50
2023-06-15T22:05:49.155Z,28.08
2023-06-15T22:08:16.891Z,23.80
2023-06-15T22:10:44.069Z,23.40
2023-06-15T22:13:15.632Z,25.95
2023-06-15T22:15:42.992Z,21.35
2023-06-15T22:18:10.756Z,26.10
2023-06-15T22:20:37.950Z,29.52
2023-06-15T22:23:05.455Z,28.17
2023-06-15T22:25:37.458Z,23.55
2023-06-15T22:28:11.227Z,27.90
2023-06-15T22:30:38.343Z,24.02
2023-06-15T22:33:05.630Z,21.83
2023-06-15T22:35:32.766Z,20.52
2023-06-15T22:38:00.685Z,18.55
2023-06-15T22:40:29.946Z,20.30
2023-06-15T22:42:56.912Z,19.63
2023-06-15T22:45:23.984Z,26.80
2023-06-15T22:47:51.144Z,20.58
2023-06-15T22:50:22.144Z,21.63
2023-06-15T22:52:49.858Z,20.40
2023-06-15T22:55:17.020Z,23.75
2023-06-15T22:57:44.145Z,19.33
2023-06-15T23:00:11.911Z,21.55
2023-06-15T23:02:39.281Z,22.17
2023-06-15T23:05:07.646Z,16.70
2023-06-15T23:07:35.239Z,19.63
2023-06-15T23:10:02.378Z,19.63
2023-06-15T23:12:31.821Z,18.33
2023-06-15T23:14:59.551Z,31.25
2023-06-15T23:17:27.731Z,14.90
2023-06-15T23:19:56.625Z,16.50
2023-06-15T23:22:23.836Z,20.42
2023-06-15T23:24:52.710Z,19.52
2023-06-15T23:27:20.375Z,14.05
2023-06-15T23:29:49.661Z,19.05
2023-06-15T23:32:17.428Z,16.43
2023-06-15T23:34:44.835Z,21.13
2023-06-15T23:37:11.918Z,18.08
2023-06-15T23:39:38.986Z,20.70
2023-06-15T23:42:06.642Z,25.10
2023-06-15T23:44:33.780Z,28.80
2023-06-15T23:47:00.831Z,20.38
2023-06-15T23:49:27.864Z,23.95
2023-06-15T23:51:54.997Z,24.80
2023-06-15T23:54:22.084Z,26.45
2023-06-15T23:56:49.116Z,19.02
2023-06-15T23:59:16.248Z,21.13
